createdAt,value
2022-08-14T00:02:50.305Z,5.27
2022-08-14T00:05:46.539Z,5.10
2022-08-14T00:08:52.488Z,6.37
2022-08-14T00:11:54.237Z,5.43
2022-08-14T00:14:45.984Z,6.37
2022-08-14T00:18:00.890Z,5.70
2022-08-14T00:21:11.093Z,5.33
2022-08-14T00:24:09.878Z,5.70
2022-08-14T00:27:37.841Z,5.70
2022-08-14T00:30:44.019Z,5.27
2022-08-14T00:33:51.614Z,5.77
2022-08-14T00:36:50.955Z,7.27
2022-08-14T00:39:46.556Z,5.20
2022-08-14T00:42:56.623Z,5.60
2022-08-14T00:45:56.045Z,5.40
2022-08-14T00:48:59.826Z,5.60
2022-08-14T00:51:54.183Z,5.57
2022-08-14T00:55:01.584Z,6.13
2022-08-14T00:58:06.580Z,5.67
2022-08-14T01:00:58.004Z,6.23
2022-08-14T01:04:03.411Z,5.90
2022-08-14T01:06:58.900Z,5.90
2022-08-14T01:09:53.736Z,5.97
2022-08-14T01:12:47.545Z,6.57
2022-08-14T01:15:57.880Z,6.30
2022-08-14T01:19:22.429Z,5.83
2022-08-14T01:22:18.610Z,5.63
2022-08-14T01:25:11.709Z,6.20
2022-08-14T01:28:03.490Z,6.20
2022-08-14T01:30:56.069Z,4.87
2022-08-14T01:34:07.429Z,6.33
2022-08-14T01:37:04.703Z,6.90
2022-08-14T01:40:02.673Z,6.27
2022-08-14T01:42:56.323Z,6.70
2022-08-14T01:46:05.917Z,6.20
2022-08-14T01:48:58.392Z,5.73
2022-08-14T01:51:48.812Z,6.30
2022-08-14T01:54:43.535Z,6.13
2022-08-14T01:58:00.617Z,7.40
2022-08-14T02:01:08.286Z,6.93
2022-08-14T02:04:03.313Z,6.30
2022-08-14T02:06:54.191Z,6.00
2022-08-14T02:09:55.910Z,6.90
2022-08-14T02:12:57.030Z,6.40
2022-08-14T02:15:51.385Z,7.47
2022-08-14T02:18:54.925Z,5.83
2022-08-14T02:21:48.812Z,7.80
2022-08-14T02:24:45.014Z,6.93
2022-08-14T02:28:25.730Z,7.60
2022-08-14T02:30:52.641Z,6.80
2022-08-14T02:33:44.787Z,7.10
2022-08-14T02:37:02.591Z,7.80
2022-08-14T02:39:49.105Z,7.90
2022-08-14T02:42:41.438Z,6.73
2022-08-14T02:45:59.655Z,7.07
2022-08-14T02:49:06.616Z,7.10
2022-08-14T02:51:57.772Z,8.17
2022-08-14T02:54:50.836Z,8.40
2022-08-14T02:57:51.996Z,6.70
2022-08-14T03:00:55.672Z,7.00
2022-08-14T03:03:56.077Z,7.13
2022-08-14T03:07:06.779Z,6.70
2022-08-14T03:10:27.980Z,6.73
2022-08-14T03:13:20.872Z,7.77
2022-08-14T03:16:26.812Z,8.70
2022-08-14T03:19:23.835Z,7.50
2022-08-14T03:22:18.545Z,7.40
2022-08-14T03:25:16.776Z,6.90
2022-08-14T03:28:14.568Z,8.07
2022-08-14T03:31:28.135Z,8.87
2022-08-14T03:34:47.871Z,10.20
2022-08-14T03:39:11.934Z,9.63
2022-08-14T03:41:04.067Z,10.03
2022-08-14T03:45:26.801Z,10.10
2022-08-14T03:47:46.119Z,11.07
2022-08-14T03:50:40.524Z,10.87
2022-08-14T03:53:34.215Z,9.90
2022-08-14T03:56:27.367Z,8.23
2022-08-14T03:59:21.735Z,7.67
2022-08-14T04:02:33.255Z,8.40
2022-08-14T04:05:28.625Z,7.27
2022-08-14T04:08:34.149Z,7.57
2022-08-14T04:11:39.056Z,7.40
2022-08-14T04:14:37.247Z,7.10
2022-08-14T04:17:28.416Z,7.80
2022-08-14T04:20:25.803Z,7.07
2022-08-14T04:23:23.421Z,9.20
2022-08-14T04:26:27.335Z,8.07
2022-08-14T04:29:46.451Z,8.80
2022-08-14T04:33:01.605Z,8.10
2022-08-14T04:35:57.624Z,10.90
2022-08-14T04:39:14.340Z,8.87
2022-08-14T04:42:39.647Z,10.73
2022-08-14T04:45:41.699Z,8.87
2022-08-14T04:48:51.109Z,7.90
2022-08-14T04:51:55.507Z,7.40
2022-08-14T04:54:45.424Z,8.67
2022-08-14T04:57:37.431Z,8.57
2022-08-14T05:00:29.255Z,7.80
2022-08-14T05:03:22.789Z,7.87
2022-08-14T05:06:38.132Z,7.90
2022-08-14T05:09:33.748Z,7.80
2022-08-14T05:13:13.190Z,7.97
2022-08-14T05:15:39.952Z,7.83
2022-08-14T05:19:18.490Z,8.50
2022-08-14T05:22:15.617Z,7.83
2022-08-14T05:25:10.256Z,9.70
2022-08-14T05:28:00.983Z,8.40
2022-08-14T05:30:54.361Z,8.43
2022-08-14T05:33:56.797Z,8.73
2022-08-14T05:37:01.810Z,8.30
2022-08-14T05:39:59.264Z,8.47
2022-08-14T05:42:52.934Z,7.53
2022-08-14T05:45:43.495Z,8.57
2022-08-14T05:48:42.873Z,7.87
2022-08-14T05:51:36.208Z,7.73
2022-08-14T05:54:38.196Z,8.43
2022-08-14T05:57:33.312Z,8.40
2022-08-14T06:00:29.039Z,9.07
2022-08-14T06:03:23.317Z,7.30
2022-08-14T06:06:24.885Z,8.60
2022-08-14T06:09:20.891Z,8.10
2022-08-14T06:12:14.175Z,8.00
2022-08-14T06:15:30.303Z,8.13
2022-08-14T06:18:23.292Z,7.60
2022-08-14T06:21:32.227Z,7.47
2022-08-14T06:24:35.032Z,7.27
2022-08-14T06:27:33.956Z,7.80
2022-08-14T06:30:46.337Z,7.60
2022-08-14T06:35:03.103Z,8.07
2022-08-14T06:36:57.518Z,7.90
2022-08-14T06:39:47.728Z,6.73
2022-08-14T06:42:41.567Z,7.10
2022-08-14T06:45:36.230Z,8.03
2022-08-14T06:48:32.648Z,7.80
2022-08-14T06:51:38.933Z,8.10
2022-08-14T06:54:36.247Z,8.00
2022-08-14T06:57:28.999Z,7.97
2022-08-14T07:00:26.802Z,7.43
2022-08-14T07:03:38.577Z,8.10
2022-08-14T07:06:46.813Z,7.80
2022-08-14T07:09:43.658Z,7.47
2022-08-14T07:13:01.444Z,7.60
2022-08-14T07:15:55.068Z,6.90
2022-08-14T07:18:51.117Z,7.78
2022-08-14T07:21:41.882Z,8.15
2022-08-14T07:24:34.020Z,7.80
2022-08-14T07:27:25.696Z,7.68
2022-08-14T07:30:33.727Z,8.85
2022-08-14T07:33:29.986Z,8.07
2022-08-14T07:36:27.358Z,7.85
2022-08-14T07:39:27.579Z,8.90
2022-08-14T07:42:20.052Z,7.95
2022-08-14T07:45:17.057Z,9.00
2022-08-14T07:48:09.200Z,7.88
2022-08-14T07:51:10.921Z,8.00
2022-08-14T07:54:11.181Z,7.47
2022-08-14T07:57:06.231Z,7.90
2022-08-14T08:00:01.660Z,8.55
2022-08-14T08:02:56.999Z,8.10
2022-08-14T08:05:52.736Z,8.45
2022-08-14T08:08:43.604Z,7.47
2022-08-14T08:11:57.613Z,8.85
2022-08-14T08:14:56.356Z,8.38
2022-08-14T08:18:01.275Z,8.25
2022-08-14T08:20:54.134Z,8.15
2022-08-14T08:23:51.143Z,8.68
2022-08-14T08:26:40.500Z,7.47
2022-08-14T08:29:32.426Z,8.95
2022-08-14T08:32:29.994Z,8.20
2022-08-14T08:35:21.511Z,7.78
2022-08-14T08:39:14.511Z,7.65
2022-08-14T08:41:36.894Z,7.90
2022-08-14T08:44:37.789Z,8.88
2022-08-14T08:47:39.080Z,7.97
2022-08-14T08:53:36.070Z,7.40
2022-08-14T08:56:39.809Z,7.88
2022-08-14T08:59:33.954Z,7.13
2022-08-14T09:02:27.995Z,7.97
2022-08-14T09:05:19.885Z,8.00
2022-08-14T09:08:31.662Z,8.15
2022-08-14T09:11:27.079Z,7.40
2022-08-14T09:14:16.660Z,6.70
2022-08-14T09:17:09.786Z,7.35
2022-08-14T09:20:04.094Z,7.22
2022-08-14T09:22:57.490Z,6.10
2022-08-14T09:25:59.640Z,6.28
2022-08-14T09:28:53.667Z,6.13
2022-08-14T09:31:53.410Z,6.72
2022-08-14T09:34:58.989Z,6.68
2022-08-14T09:38:19.320Z,6.00
2022-08-14T09:42:17.692Z,5.57
2022-08-14T09:45:07.947Z,6.93
2022-08-14T09:48:00.551Z,5.90
2022-08-14T09:54:19.208Z,6.03
2022-08-14T09:57:29.057Z,6.28
2022-08-14T10:00:29.561Z,5.70
2022-08-14T10:03:35.799Z,5.53
2022-08-14T10:06:28.300Z,6.57
2022-08-14T10:09:21.490Z,6.35
2022-08-14T10:12:18.824Z,6.18
2022-08-14T10:15:23.902Z,6.43
2022-08-14T10:18:18.495Z,5.95
2022-08-14T10:21:22.602Z,6.47
2022-08-14T10:24:31.208Z,5.68
2022-08-14T10:27:27.302Z,5.30
2022-08-14T10:30:22.155Z,5.65
2022-08-14T10:33:14.112Z,5.70
2022-08-14T10:36:05.749Z,5.10
2022-08-14T10:39:07.369Z,5.80
2022-08-14T10:42:16.310Z,6.80
2022-08-14T10:45:27.316Z,6.13
2022-08-14T10:48:24.558Z,6.60
2022-08-14T10:51:29.954Z,6.28
2022-08-14T10:54:35.826Z,6.25
2022-08-14T10:57:35.691Z,5.68
2022-08-14T11:00:36.739Z,5.35
2022-08-14T11:03:56.308Z,5.30
2022-08-14T11:06:48.735Z,5.50
2022-08-14T11:09:41.899Z,5.38
2022-08-14T11:12:48.232Z,5.65
2022-08-14T11:15:41.044Z,5.45
2022-08-14T11:18:41.461Z,4.93
2022-08-14T11:21:45.640Z,5.68
2022-08-14T11:24:54.153Z,5.30
2022-08-14T11:27:48.964Z,5.30
2022-08-14T11:30:49.046Z,4.95
2022-08-14T11:33:53.412Z,4.53
2022-08-14T11:37:02.197Z,4.90
2022-08-14T11:39:57.445Z,4.97
2022-08-14T11:42:59.501Z,4.93
2022-08-14T11:45:52.494Z,5.57
2022-08-14T11:48:59.629Z,5.90
2022-08-14T11:52:00.549Z,5.57
2022-08-14T11:55:03.681Z,5.93
2022-08-14T11:58:08.566Z,5.53
2022-08-14T12:01:02.881Z,5.72
2022-08-14T12:03:57.520Z,5.50
2022-08-14T12:06:52.906Z,5.45
2022-08-14T12:09:47.285Z,6.40
2022-08-14T12:12:44.170Z,5.35
2022-08-14T12:15:37.869Z,5.22
2022-08-14T12:18:36.802Z,5.90
2022-08-14T12:21:32.272Z,6.60
2022-08-14T12:24:36.697Z,6.30
2022-08-14T12:27:59.481Z,5.60
2022-08-14T12:31:02.014Z,5.63
2022-08-14T12:34:11.000Z,5.90
2022-08-14T12:37:08.019Z,5.38
2022-08-14T12:40:15.677Z,5.70
2022-08-14T12:43:15.397Z,5.13
2022-08-14T12:46:11.581Z,5.15
2022-08-14T12:49:19.504Z,4.95
2022-08-14T12:52:17.323Z,5.72
2022-08-14T12:55:10.745Z,5.82
2022-08-14T12:58:02.708Z,5.20
2022-08-14T13:01:20.748Z,5.80
2022-08-14T13:04:14.660Z,6.93
2022-08-14T13:07:09.194Z,6.32
2022-08-14T13:10:45.727Z,5.85
2022-08-14T13:13:22.915Z,5.72
2022-08-14T13:16:37.613Z,5.88
2022-08-14T13:19:30.981Z,5.78
2022-08-14T13:22:33.331Z,6.25
2022-08-14T13:25:30.880Z,5.15
2022-08-14T13:28:32.653Z,5.53
2022-08-14T13:31:35.981Z,5.93
2022-08-14T13:34:31.509Z,5.35
2022-08-14T13:37:26.220Z,5.57
2022-08-14T13:40:26.295Z,5.25
2022-08-14T13:43:23.669Z,5.03
2022-08-14T13:46:15.397Z,5.35
2022-08-14T13:49:23.916Z,4.43
2022-08-14T13:52:48.059Z,4.95
2022-08-14T13:55:28.670Z,5.13
2022-08-14T13:58:33.723Z,4.85
2022-08-14T14:01:43.518Z,4.90
2022-08-14T14:04:43.176Z,5.07
2022-08-14T14:07:51.021Z,5.03
2022-08-14T14:10:48.236Z,4.75
2022-08-14T14:13:48.654Z,4.57
2022-08-14T14:16:51.214Z,5.13
2022-08-14T14:19:54.874Z,5.13
2022-08-14T14:23:02.168Z,5.05
2022-08-14T14:26:02.465Z,5.30
2022-08-14T14:29:00.421Z,5.10
2022-08-14T14:31:52.040Z,4.63
2022-08-14T14:34:45.935Z,4.38
2022-08-14T14:37:46.495Z,4.97
2022-08-14T14:40:52.438Z,4.93
2022-08-14T14:43:57.357Z,4.78
2022-08-14T14:46:53.153Z,5.07
2022-08-14T14:49:55.216Z,5.18
2022-08-14T14:52:47.161Z,4.72
2022-08-14T14:55:59.676Z,5.03
2022-08-14T14:58:58.840Z,4.60
2022-08-14T15:01:52.407Z,4.63
2022-08-14T15:04:49.783Z,5.40
2022-08-14T15:07:45.306Z,4.43
2022-08-14T15:10:41.004Z,4.97
2022-08-14T15:13:43.127Z,4.65
2022-08-14T15:16:44.620Z,4.70
2022-08-14T15:19:35.703Z,4.93
2022-08-14T15:22:31.705Z,4.80
2022-08-14T15:25:26.722Z,4.60
2022-08-14T15:28:29.569Z,4.70
2022-08-14T15:31:38.590Z,5.28
2022-08-14T15:34:50.773Z,4.85
2022-08-14T15:37:45.456Z,4.75
2022-08-14T15:40:56.054Z,5.35
2022-08-14T15:43:50.590Z,4.90
2022-08-14T15:46:54.244Z,4.55
2022-08-14T15:49:52.827Z,4.47
2022-08-14T15:52:49.239Z,4.47
2022-08-14T15:55:49.133Z,4.60
2022-08-14T15:58:43.363Z,4.35
2022-08-14T16:01:53.501Z,4.40
2022-08-14T16:04:45.819Z,4.43
2022-08-14T16:07:42.863Z,4.85
2022-08-14T16:10:36.384Z,4.50
2022-08-14T16:13:41.927Z,4.10
2022-08-14T16:16:50.718Z,3.72
2022-08-14T16:19:51.014Z,6.05
2022-08-14T16:23:00.344Z,4.47
2022-08-14T16:25:52.823Z,4.57
2022-08-14T16:28:46.442Z,4.45
2022-08-14T16:31:42.955Z,4.20
2022-08-14T16:34:50.000Z,4.50
2022-08-14T16:37:45.496Z,4.85
2022-08-14T16:40:45.266Z,4.43
2022-08-14T16:43:47.583Z,5.00
2022-08-14T16:46:46.774Z,4.32
2022-08-14T16:50:02.927Z,3.92
2022-08-14T16:53:00.687Z,4.43
2022-08-14T16:56:08.700Z,3.90
2022-08-14T16:59:15.030Z,3.88
2022-08-14T17:02:09.199Z,4.47
2022-08-14T17:05:16.324Z,4.10
2022-08-14T17:08:41.519Z,5.00
2022-08-14T17:11:58.598Z,4.10
2022-08-14T17:14:57.788Z,4.43
2022-08-14T17:17:58.309Z,4.10
2022-08-14T17:21:02.861Z,4.65
2022-08-14T17:24:56.042Z,4.60
2022-08-14T17:27:25.167Z,4.95
2022-08-14T17:30:50.952Z,5.03
2022-08-14T17:33:44.729Z,4.60
2022-08-14T17:36:43.081Z,4.50
2022-08-14T17:39:40.935Z,4.70
2022-08-14T17:43:01.611Z,4.35
2022-08-14T17:45:56.048Z,4.50
2022-08-14T17:49:14.471Z,5.47
2022-08-14T17:52:17.153Z,4.30
2022-08-14T17:55:12.506Z,4.88
2022-08-14T17:58:22.522Z,4.13
2022-08-14T18:01:23.337Z,4.60
2022-08-14T18:04:27.652Z,4.55
2022-08-14T18:08:00.011Z,3.95
2022-08-14T18:10:56.187Z,4.53
2022-08-14T18:13:52.554Z,4.50
2022-08-14T18:16:46.572Z,4.53
2022-08-14T18:19:45.196Z,4.30
2022-08-14T18:22:39.731Z,4.18
2022-08-14T18:25:43.329Z,3.70
2022-08-14T18:28:51.493Z,3.42
2022-08-14T18:31:45.211Z,3.60
2022-08-14T18:34:45.249Z,3.30
2022-08-14T18:37:56.085Z,3.40
2022-08-14T18:40:50.732Z,4.28
2022-08-14T18:43:47.577Z,4.20
2022-08-14T18:47:14.988Z,4.05
2022-08-14T18:50:26.877Z,4.17
2022-08-14T18:53:24.978Z,3.90
2022-08-14T18:56:23.373Z,3.47
2022-08-14T18:59:35.670Z,3.53
2022-08-14T19:02:46.415Z,3.10
2022-08-14T19:06:04.728Z,3.17
2022-08-14T19:09:03.775Z,2.87
2022-08-14T19:11:56.833Z,3.17
2022-08-14T19:15:02.359Z,3.37
2022-08-14T19:18:14.061Z,3.60
2022-08-14T19:21:13.190Z,3.30
2022-08-14T19:24:29.243Z,3.10
2022-08-14T19:27:26.326Z,3.77
2022-08-14T19:30:34.060Z,3.87
2022-08-14T19:33:50.970Z,3.53
2022-08-14T19:37:04.621Z,3.70
2022-08-14T19:40:15.609Z,3.90
2022-08-14T19:43:10.077Z,3.40
2022-08-14T19:46:00.294Z,4.00
2022-08-14T19:48:56.711Z,3.33
2022-08-14T19:51:57.391Z,4.20
2022-08-14T19:54:55.098Z,4.10
2022-08-14T19:57:58.566Z,3.60
2022-08-14T20:01:00.223Z,3.50
2022-08-14T20:04:00.788Z,3.60
2022-08-14T20:06:53.923Z,3.53
2022-08-14T20:11:03.049Z,3.30
2022-08-14T20:13:10.821Z,3.93
2022-08-14T20:16:04.131Z,4.07
2022-08-14T20:18:55.456Z,4.37
2022-08-14T20:22:00.692Z,4.50
2022-08-14T20:25:17.384Z,4.67
2022-08-14T20:28:29.042Z,4.57
2022-08-14T20:31:23.581Z,4.27
2022-08-14T20:34:39.558Z,4.13
2022-08-14T20:37:41.666Z,4.27
2022-08-14T20:40:37.042Z,4.53
2022-08-14T20:44:08.850Z,4.33
2022-08-14T20:47:06.528Z,4.93
2022-08-14T20:50:17.108Z,4.63
2022-08-14T20:53:28.863Z,4.30
2022-08-14T20:56:30.547Z,4.90
2022-08-14T20:59:27.792Z,4.53
2022-08-14T21:02:50.672Z,4.60
2022-08-14T21:05:56.853Z,5.20
2022-08-14T21:08:48.629Z,4.40
2022-08-14T21:12:02.669Z,4.63
2022-08-14T21:14:55.328Z,4.67
2022-08-14T21:18:00.720Z,4.77
2022-08-14T21:20:54.006Z,4.90
2022-08-14T21:23:54.464Z,4.10
2022-08-14T21:26:50.809Z,4.50
2022-08-14T21:29:55.475Z,5.20
2022-08-14T21:32:50.638Z,4.50
2022-08-14T21:35:56.061Z,4.33
2022-08-14T21:38:51.627Z,5.20
2022-08-14T21:41:49.973Z,4.80
2022-08-14T21:44:43.670Z,5.47
2022-08-14T21:47:35.738Z,4.80
2022-08-14T21:51:00.401Z,4.77
2022-08-14T21:53:58.213Z,4.67
2022-08-14T21:56:57.019Z,4.87
2022-08-14T21:59:49.764Z,4.57
2022-08-14T22:02:45.189Z,5.30
2022-08-14T22:05:52.822Z,5.10
2022-08-14T22:08:58.509Z,5.20
2022-08-14T22:11:56.662Z,5.00
2022-08-14T22:14:53.031Z,5.20
2022-08-14T22:17:52.404Z,5.53
2022-08-14T22:20:45.045Z,5.90
2022-08-14T22:23:42.597Z,4.80
2022-08-14T22:26:36.931Z,5.83
2022-08-14T22:29:35.523Z,4.93
2022-08-14T22:32:55.893Z,5.23
2022-08-14T22:35:56.176Z,4.97
2022-08-14T22:38:56.204Z,6.00
2022-08-14T22:41:55.863Z,4.80
2022-08-14T22:44:45.336Z,5.80
2022-08-14T22:47:40.877Z,5.30
2022-08-14T22:50:33.983Z,5.20
2022-08-14T22:53:29.520Z,5.17
2022-08-14T22:56:34.718Z,5.40
2022-08-14T22:59:39.737Z,5.33
2022-08-14T23:02:31.939Z,5.10
2022-08-14T23:05:38.808Z,5.63
2022-08-14T23:09:01.644Z,5.10
2022-08-14T23:11:42.325Z,5.60
2022-08-14T23:14:46.816Z,5.83
2022-08-14T23:17:39.339Z,5.50
2022-08-14T23:20:36.373Z,5.33
2022-08-14T23:23:31.049Z,6.13
2022-08-14T23:26:49.628Z,5.23
2022-08-14T23:29:45.341Z,5.07
2022-08-14T23:32:38.516Z,5.83
2022-08-14T23:35:36.195Z,4.80
2022-08-14T23:38:31.380Z,4.93
2022-08-14T23:41:25.880Z,5.00
2022-08-14T23:44:40.355Z,5.63
2022-08-14T23:47:57.786Z,5.80
2022-08-14T23:50:58.380Z,5.50
2022-08-14T23:53:57.817Z,5.87
2022-08-14T23:56:49.347Z,5.70
